CheckWX is a tool to help pilots better visualize weather data.  It is not intended as a substitute for an official pre-flight weather briefing.

15:12:39 UTC

KELZ METAR
Wellsville Municipal Arpt,tarantine Field Airport
Wellsville, New York, USA
Current

17 mins ago

KELZ 261456Z AUTO 29012KT 10SM FEW019 BKN034 BKN044 20/18 A3004 RMK AO2 RAB38E48 SLP162 P0000 60000 T02000178 50001
Observed
May-26 @ 14:56 UTC
Wind
  • 290° at 12 KTS
Visibility
10 SM
Flight Rules
VFR
Cloud Levels
  • Few at 1,900' AGL
  • Broken at 3,400' AGL
  • Broken at 4,400' AGL
Temperature
20°C / 68°F
Dewpoint
18°C / 64°F
Humidity
88%
Altimeter
30.04" Hg
Pressure
1017.32 hPa
Current Rain
0.01"
Previous

39 mins ago

KELZ 261434Z AUTO 28009KT 10SM FEW018 SCT033 BKN042 21/18 A3004 RMK AO2 T02060183
Observed
May-26 @ 14:34 UTC
Wind
  • 280° at 9 KTS
Visibility
10 SM
Flight Rules
VFR
Cloud Levels
  • Few at 1,800' AGL
  • Scattered at 3,300' AGL
  • Broken at 4,200' AGL
Temperature
21°C / 70°F
Dewpoint
18°C / 64°F
Humidity
83%
Altimeter
30.04" Hg
Pressure
1017.32 hPa
Previous

48 mins ago

KELZ 261425Z AUTO 28011KT 10SM BKN018 BKN032 OVC055 20/18 A3004 RMK AO2 T02000178
Observed
May-26 @ 14:25 UTC
Wind
  • 280° at 11 KTS
Visibility
10 SM
Flight Rules
MVFR
Cloud Levels
  • Broken at 1,800' AGL
  • Broken at 3,200' AGL
  • Overcast at 5,500' AGL
Temperature
20°C / 68°F
Dewpoint
18°C / 64°F
Humidity
88%
Altimeter
30.04" Hg
Pressure
1017.32 hPa